Time;durP1;ratioP1;P1;durP2;ratioP2;P2;SDS_P1;SDS_P2;PMS_P1;PMS_P2;Temp;Humidity;BMP_temperature;BMP_pressure;BME280_temperature;BME280_humidity;BME280_pressure;Samples;Min_cycle;Max_cycle;Signal;HPM_P1;HPM_P2
2021/01/03 00:01:51;;;;;;;1999.90;999.90;;;4.00;99.90;;;;;;5017656;28;20743;-84
2021/01/03 00:04:19;;;;;;;1999.90;999.90;;;4.00;99.90;;;;;;5000107;28;20653;-85
2021/01/03 00:06:49;;;;;;;1999.90;999.90;;;4.00;99.90;;;;;;4999719;28;20170;-85
2021/01/03 00:09:15;;;;;;;1999.90;999.90;;;4.00;99.90;;;;;;4999900;28;20166;-84
2021/01/03 00:11:40;;;;;;;1999.90;999.90;;;3.90;99.90;;;;;;4999468;28;20205;-84
2021/01/03 00:14:09;;;;;;;1999.90;999.90;;;4.00;99.90;;;;;;5016662;28;20182;-84
2021/01/03 00:16:35;;;;;;;1999.90;999.90;;;3.90;99.90;;;;;;5016802;28;20162;-85
2021/01/03 00:19:02;;;;;;;1999.90;999.90;;;3.90;99.90;;;;;;5017008;28;20166;-84
2021/01/03 00:21:27;;;;;;;1999.90;999.90;;;3.90;99.90;;;;;;5016815;28;20625;-85
2021/01/03 00:23:53;;;;;;;1999.90;999.90;;;3.90;99.90;;;;;;5016667;28;20312;-84
2021/01/03 00:26:19;;;;;;;1999.90;999.90;;;3.90;99.90;;;;;;5016430;28;20216;-84
2021/01/03 00:28:44;;;;;;;1999.90;999.90;;;3.90;99.90;;;;;;5016319;28;20166;-84
2021/01/03 00:31:10;;;;;;;1999.90;999.90;;;3.90;99.90;;;;;;4998959;28;20830;-84
2021/01/03 00:33:36;;;;;;;1999.90;999.90;;;3.90;99.90;;;;;;4998857;28;20425;-83
2021/01/03 00:36:02;;;;;;;1999.90;999.90;;;3.90;99.90;;;;;;5016612;28;20197;-83
2021/01/03 00:38:28;;;;;;;1999.90;999.90;;;3.90;99.90;;;;;;5016380;28;20170;-84
2021/01/03 00:40:54;;;;;;;1999.90;999.90;;;3.90;99.90;;;;;;5016481;28;20585;-83
2021/01/03 00:43:20;;;;;;;1999.90;999.90;;;3.90;99.90;;;;;;4998629;28;20651;-83
2021/01/03 00:45:48;;;;;;;1999.90;999.90;;;3.80;99.90;;;;;;5016495;28;20570;-84
2021/01/03 00:48:14;;;;;;;1999.90;999.90;;;3.80;99.90;;;;;;5016447;28;20155;-84
2021/01/03 00:50:40;;;;;;;1999.90;999.90;;;3.90;99.90;;;;;;4998647;28;20162;-83
2021/01/03 00:53:06;;;;;;;1999.90;999.90;;;3.90;99.90;;;;;;5016208;28;20168;-84
2021/01/03 00:55:32;;;;;;;1999.90;999.90;;;3.90;99.90;;;;;;5016225;28;20409;-84
2021/01/03 00:58:00;;;;;;;1999.90;999.90;;;3.90;99.90;;;;;;4998386;28;20520;-83
2021/01/03 01:00:29;;;;;;;1999.90;999.90;;;4.00;99.90;;;;;;5015968;28;20247;-84
2021/01/03 01:02:59;;;;;;;1999.90;999.90;;;4.00;99.90;;;;;;4998312;28;20166;-84
2021/01/03 01:05:25;;;;;;;1999.90;999.90;;;4.00;99.90;;;;;;5015781;28;20197;-84
2021/01/03 01:07:52;;;;;;;1999.90;999.90;;;3.90;99.90;;;;;;4998484;28;20607;-83
2021/01/03 01:10:23;;;;;;;1999.90;999.90;;;3.90;99.90;;;;;;5015818;28;20189;-84
2021/01/03 01:12:50;;;;;;;1999.90;999.90;;;3.90;99.90;;;;;;5015432;28;20213;-84
2021/01/03 01:15:18;;;;;;;1999.90;999.90;;;3.90;99.90;;;;;;5015790;28;20162;-84
2021/01/03 01:17:45;;;;;;;1999.90;999.90;;;4.00;99.90;;;;;;4998444;28;20166;-84
2021/01/03 01:20:11;;;;;;;1999.90;999.90;;;4.00;99.90;;;;;;5015826;28;20166;-84
2021/01/03 01:22:37;;;;;;;1999.90;999.90;;;4.00;99.90;;;;;;5015708;28;20252;-84
2021/01/03 01:25:07;;;;;;;1999.90;999.90;;;3.90;99.90;;;;;;4998592;28;20288;-84
2021/01/03 01:27:32;;;;;;;1999.90;999.90;;;3.90;99.90;;;;;;5015186;28;20241;-84
2021/01/03 01:30:01;;;;;;;1999.90;999.90;;;3.90;99.90;;;;;;5016418;28;20279;-83
2021/01/03 01:32:27;;;;;;;1999.90;999.90;;;4.00;99.90;;;;;;5015721;28;20491;-83
2021/01/03 01:34:52;;;;;;;1999.90;999.90;;;4.00;99.90;;;;;;5015667;28;20216;-83
2021/01/03 01:37:24;;;;;;;1999.90;999.90;;;4.00;99.90;;;;;;5015572;28;20253;-84
2021/01/03 01:39:50;;;;;;;1999.90;999.90;;;4.00;99.90;;;;;;4998457;28;20170;-83
2021/01/03 01:42:17;;;;;;;1999.90;999.90;;;4.00;99.90;;;;;;5015896;28;20170;-84
2021/01/03 01:44:43;;;;;;;1999.90;999.90;;;4.00;99.90;;;;;;5015702;28;20189;-84
2021/01/03 01:47:22;;;;;;;1999.90;999.90;;;4.00;99.90;;;;;;5015281;28;20166;-83
2021/01/03 01:49:48;;;;;;;1999.90;999.90;;;4.00;99.90;;;;;;5015639;28;20150;-84
2021/01/03 01:52:17;;;;;;;1999.90;999.90;;;4.00;99.90;;;;;;5015656;28;20178;-84
2021/01/03 01:54:45;;;;;;;1999.90;999.90;;;4.00;99.90;;;;;;4997649;28;20185;-84
2021/01/03 01:57:18;;;;;;;1999.90;999.90;;;4.00;99.90;;;;;;5014931;28;20166;-84
2021/01/03 02:00:04;;;;;;;1999.90;999.90;;;4.00;99.90;;;;;;5015638;28;20154;-84
2021/01/03 02:02:47;;;;;;;1999.90;999.90;;;4.10;99.90;;;;;;4984447;28;20180;-84
2021/01/03 02:05:47;;;;;;;1999.90;999.90;;;4.10;99.90;;;;;;4998203;28;20213;-84
2021/01/03 02:08:34;;;;;;;1999.90;999.90;;;4.10;99.90;;;;;;5004356;28;20549;-84
2021/01/03 02:11:01;;;;;;;1999.90;999.90;;;4.10;99.90;;;;;;4997888;28;20166;-84
2021/01/03 02:13:27;;;;;;;1999.90;999.90;;;4.10;99.90;;;;;;4997950;28;20220;-84
2021/01/03 02:15:57;;;;;;;1999.90;999.90;;;4.10;99.90;;;;;;5015248;28;20193;-84
2021/01/03 02:18:23;;;;;;;1999.90;999.90;;;4.10;99.90;;;;;;5015394;28;20165;-84
2021/01/03 02:21:05;;;;;;;1999.90;999.90;;;4.10;99.90;;;;;;5014992;28;20572;-84
2021/01/03 02:23:52;;;;;;;1999.90;999.90;;;4.10;99.90;;;;;;4997528;28;20201;-83
2021/01/03 02:26:21;;;;;;;1999.90;999.90;;;4.10;99.90;;;;;;5015230;28;20149;-84
2021/01/03 02:28:47;;;;;;;1999.90;999.90;;;4.10;99.90;;;;;;4997516;28;20188;-83
2021/01/03 02:31:16;;;;;;;1999.90;999.90;;;4.10;99.90;;;;;;4998273;28;20162;-83
2021/01/03 02:33:45;;;;;;;1999.90;999.90;;;4.20;99.90;;;;;;4997740;28;20652;-84
2021/01/03 02:36:25;;;;;;;1999.90;999.90;;;4.10;99.90;;;;;;5015263;28;20181;-84
2021/01/03 02:39:05;;;;;;;1999.90;999.90;;;4.10;99.90;;;;;;5014874;28;20248;-84
2021/01/03 02:41:32;;;;;;;1999.90;999.90;;;4.10;99.90;;;;;;5015499;28;20303;-83
2021/01/03 02:44:00;;;;;;;1999.90;999.90;;;4.00;99.90;;;;;;5015298;28;20194;-84
2021/01/03 02:46:27;;;;;;;1999.90;999.90;;;4.10;99.90;;;;;;5015483;28;20170;-84
2021/01/03 02:48:55;;;;;;;1999.90;999.90;;;4.10;99.90;;;;;;4997382;28;20166;-84
2021/01/03 02:51:23;;;;;;;1999.90;999.90;;;4.00;99.90;;;;;;5000339;28;20192;-84
2021/01/03 02:53:49;;;;;;;1999.90;999.90;;;4.10;99.90;;;;;;5018943;28;20248;-84
2021/01/03 02:56:14;;;;;;;1999.90;999.90;;;4.20;99.90;;;;;;5001284;28;20220;-84
2021/01/03 02:58:40;;;;;;;1999.90;999.90;;;4.20;99.90;;;;;;5001269;28;20177;-84
2021/01/03 03:01:06;;;;;;;1999.90;999.90;;;4.20;99.90;;;;;;5018543;28;20177;-84
2021/01/03 03:03:31;;;;;;;1999.90;999.90;;;4.20;99.90;;;;;;5018613;28;20189;-84
2021/01/03 03:05:57;;;;;;;1999.90;999.90;;;4.20;99.90;;;;;;5018810;28;20166;-84
2021/01/03 03:08:24;;;;;;;1999.90;999.90;;;4.20;99.90;;;;;;5018633;28;20237;-84
2021/01/03 03:10:50;;;;;;;1999.90;999.90;;;4.10;99.90;;;;;;5000518;28;20213;-84
2021/01/03 03:13:16;;;;;;;1999.90;999.90;;;4.10;99.90;;;;;;5018039;28;20182;-83
2021/01/03 03:15:41;;;;;;;1999.90;999.90;;;4.00;99.90;;;;;;5001222;28;20166;-84
2021/01/03 03:18:08;;;;;;;1999.90;999.90;;;3.90;99.90;;;;;;5000950;28;20169;-84
2021/01/03 03:20:37;;;;;;;1999.90;999.90;;;3.90;99.90;;;;;;5000579;28;20173;-84
2021/01/03 03:23:03;;;;;;;1999.90;999.90;;;3.90;99.90;;;;;;5001502;28;20201;-85
2021/01/03 03:25:29;;;;;;;1999.90;999.90;;;3.90;99.90;;;;;;5001069;28;20198;-84
2021/01/03 03:27:54;;;;;;;1999.90;999.90;;;3.90;99.90;;;;;;5000563;28;20415;-84
2021/01/03 03:30:22;;;;;;;1999.90;999.90;;;4.00;99.90;;;;;;5000292;28;20173;-84
2021/01/03 03:32:52;;;;;;;1999.90;999.90;;;4.00;99.90;;;;;;5001291;28;20174;-84
2021/01/03 03:35:24;;;;;;;1999.90;999.90;;;4.00;99.90;;;;;;5019075;28;20162;-84
2021/01/03 03:37:50;;;;;;;1999.90;999.90;;;4.10;99.90;;;;;;5018887;28;20154;-84
2021/01/03 03:40:16;;;;;;;1999.90;999.90;;;4.10;99.90;;;;;;5000869;28;20173;-84
2021/01/03 03:42:43;;;;;;;1999.90;999.90;;;4.10;99.90;;;;;;5018910;28;20176;-84
2021/01/03 03:45:10;;;;;;;1999.90;999.90;;;4.20;99.90;;;;;;5001045;28;20197;-84
2021/01/03 03:47:36;;;;;;;1999.90;999.90;;;4.20;99.90;;;;;;5019119;28;20165;-84
2021/01/03 03:50:04;;;;;;;1999.90;999.90;;;4.20;99.90;;;;;;5001200;28;20162;-84
2021/01/03 03:52:29;;;;;;;1999.90;999.90;;;4.10;99.90;;;;;;5018750;28;20161;-85
2021/01/03 03:54:55;;;;;;;1999.90;999.90;;;4.20;99.90;;;;;;5018821;28;20189;-85
2021/01/03 03:57:21;;;;;;;1999.90;999.90;;;4.20;99.90;;;;;;5018785;28;20170;-84
2021/01/03 03:59:46;;;;;;;1999.90;999.90;;;4.20;99.90;;;;;;5001584;28;20514;-85
2021/01/03 04:02:12;;;;;;;1999.90;999.90;;;4.20;99.90;;;;;;5017929;28;20633;-85
2021/01/03 04:04:38;;;;;;;1999.90;999.90;;;4.20;99.90;;;;;;5018441;28;20196;-85
2021/01/03 04:07:04;;;;;;;1999.90;999.90;;;4.20;99.90;;;;;;5018710;28;20158;-85
2021/01/03 04:09:30;;;;;;;1999.90;999.90;;;4.10;99.90;;;;;;5001694;28;20181;-85
2021/01/03 04:11:56;;;;;;;1999.90;999.90;;;4.10;99.90;;;;;;5019026;28;20162;-85
2021/01/03 04:14:23;;;;;;;1999.90;999.90;;;4.20;99.90;;;;;;5018527;28;20427;-85
2021/01/03 04:16:51;;;;;;;1999.90;999.90;;;4.30;99.90;;;;;;5001231;28;20174;-84
2021/01/03 04:19:18;;;;;;;1999.90;999.90;;;4.30;99.90;;;;;;5000770;28;20166;-84
2021/01/03 04:21:50;;;;;;;1999.90;999.90;;;4.30;99.90;;;;;;5018285;28;20177;-85
2021/01/03 04:24:16;;;;;;;1999.90;999.90;;;4.30;99.90;;;;;;5018023;28;20193;-84
2021/01/03 04:26:41;;;;;;;1999.90;999.90;;;4.30;99.90;;;;;;5000464;28;20191;-85
2021/01/03 04:29:07;;;;;;;1999.90;999.90;;;4.20;99.90;;;;;;5000605;28;20252;-84
2021/01/03 04:31:33;;;;;;;1999.90;999.90;;;4.20;99.90;;;;;;5018656;28;20158;-85
2021/01/03 04:33:58;;;;;;;1999.90;999.90;;;4.20;99.90;;;;;;5017788;28;20161;-85
2021/01/03 04:36:24;;;;;;;1999.90;999.90;;;4.20;99.90;;;;;;5018473;28;20204;-85
2021/01/03 04:38:53;;;;;;;1999.90;999.90;;;4.20;99.90;;;;;;5000876;28;20181;-85
2021/01/03 04:41:26;;;;;;;1999.90;999.90;;;4.20;99.90;;;;;;5000680;28;20224;-85
2021/01/03 04:43:52;;;;;;;1999.90;999.90;;;4.20;99.90;;;;;;5000944;28;20193;-84
2021/01/03 04:46:21;;;;;;;1999.90;999.90;;;4.20;99.90;;;;;;5018064;28;20158;-84
2021/01/03 04:48:50;;;;;;;1999.90;999.90;;;4.20;99.90;;;;;;5018460;28;20244;-85
2021/01/03 04:51:30;;;;;;;1999.90;999.90;;;4.20;99.90;;;;;;5018065;28;20169;-85
2021/01/03 04:54:12;;;;;;;1999.90;999.90;;;4.20;99.90;;;;;;5018051;28;20150;-84
2021/01/03 04:56:41;;;;;;;1999.90;999.90;;;4.20;99.90;;;;;;5000595;28;20256;-85
2021/01/03 04:59:25;;;;;;;1999.90;999.90;;;4.20;99.90;;;;;;5018232;28;20180;-84
2021/01/03 05:02:13;;;;;;;1999.90;999.90;;;4.20;99.90;;;;;;5017921;28;20177;-84
2021/01/03 05:05:02;;;;;;;1999.90;999.90;;;4.10;99.90;;;;;;5000694;28;20193;-85
2021/01/03 05:07:31;;;;;;;1999.90;999.90;;;4.10;99.90;;;;;;5018139;28;20605;-85
2021/01/03 05:10:11;;;;;;;1999.90;999.90;;;4.20;99.90;;;;;;5017198;28;20524;-84
2021/01/03 05:12:44;;;;;;;1999.90;999.90;;;4.20;99.90;;;;;;4999651;28;20169;-84
2021/01/03 05:15:13;;;;;;;1999.90;999.90;;;4.20;99.90;;;;;;4999248;28;20200;-85
2021/01/03 05:17:39;;;;;;;1999.90;999.90;;;4.20;99.90;;;;;;4999862;28;20170;-84
2021/01/03 05:20:06;;;;;;;1999.90;999.90;;;4.10;99.90;;;;;;5018077;28;20176;-85
2021/01/03 05:22:36;;;;;;;1999.90;999.90;;;4.10;99.90;;;;;;5016661;28;20166;-85
2021/01/03 05:25:05;;;;;;;1999.90;999.90;;;4.10;99.90;;;;;;5017258;28;20186;-84
2021/01/03 05:27:31;;;;;;;1999.90;999.90;;;4.10;99.90;;;;;;5017291;28;20177;-84
2021/01/03 05:30:26;;;;;;;1999.90;999.90;;;4.10;99.90;;;;;;4999156;28;20172;-85
2021/01/03 05:32:52;;;;;;;1999.90;999.90;;;4.10;99.90;;;;;;5016841;28;20161;-84
2021/01/03 05:35:27;;;;;;;1999.90;999.90;;;4.10;99.90;;;;;;5016979;28;20174;-85
2021/01/03 05:37:55;;;;;;;1999.90;999.90;;;4.10;99.90;;;;;;5017075;28;20170;-84
2021/01/03 05:40:29;;;;;;;1999.90;999.90;;;4.10;99.90;;;;;;5016950;28;20637;-85
2021/01/03 05:43:17;;;;;;;1999.90;999.90;;;4.10;99.90;;;;;;5017105;28;20170;-85
2021/01/03 05:46:22;;;;;;;1999.90;999.90;;;4.10;99.90;;;;;;4990316;28;20273;-85
2021/01/03 05:49:11;;;;;;;1999.90;999.90;;;4.10;99.90;;;;;;5003030;28;20186;-85
2021/01/03 05:51:46;;;;;;;1999.90;999.90;;;4.10;99.90;;;;;;5015950;28;20201;-84
2021/01/03 05:54:31;;;;;;;1999.90;999.90;;;4.10;99.90;;;;;;4998157;28;20501;-84
2021/01/03 05:57:08;;;;;;;1999.90;999.90;;;4.00;99.90;;;;;;5015094;28;20200;-84
2021/01/03 05:59:38;;;;;;;1999.90;999.90;;;4.10;99.90;;;;;;5015485;28;20216;-84
2021/01/03 06:02:17;;;;;;;1999.90;999.90;;;4.10;99.90;;;;;;5015047;28;20170;-84
2021/01/03 06:04:43;;;;;;;1999.90;999.90;;;4.10;99.90;;;;;;5014667;28;20549;-84
2021/01/03 06:07:23;;;;;;;1999.90;999.90;;;4.10;99.90;;;;;;5015167;28;20193;-84
2021/01/03 06:09:48;;;;;;;1999.90;999.90;;;4.20;99.90;;;;;;5015774;28;20185;-83
2021/01/03 06:12:19;;;;;;;1999.90;999.90;;;4.10;99.90;;;;;;5015164;28;20166;-83
2021/01/03 06:14:50;;;;;;;1999.90;999.90;;;4.20;99.90;;;;;;5015100;28;20236;-84
2021/01/03 06:17:19;;;;;;;1999.90;999.90;;;4.10;99.90;;;;;;5015396;28;20224;-83
2021/01/03 06:19:53;;;;;;;1999.90;999.90;;;4.10;99.90;;;;;;4997206;28;20641;-84
2021/01/03 06:22:37;;;;;;;1999.90;999.90;;;4.10;99.90;;;;;;5015520;28;20177;-84
2021/01/03 06:25:29;;;;;;;1999.90;999.90;;;4.00;99.90;;;;;;4998508;28;20659;-84
2021/01/03 06:28:04;;;;;;;1999.90;999.90;;;4.10;99.90;;;;;;5010540;28;20660;-84
2021/01/03 06:30:33;;;;;;;1999.90;999.90;;;4.10;99.90;;;;;;5002559;28;20624;-84
2021/01/03 06:33:28;;;;;;;1999.90;999.90;;;4.10;99.90;;;;;;5019558;28;20170;-85
2021/01/03 06:36:04;;;;;;;1999.90;999.90;;;4.10;99.90;;;;;;5020454;28;20154;-84
2021/01/03 06:38:30;;;;;;;1999.90;999.90;;;4.10;99.90;;;;;;5019740;28;20189;-84
2021/01/03 06:41:04;;;;;;;1999.90;999.90;;;4.10;99.90;;;;;;5019521;28;20576;-85
2021/01/03 06:44:04;;;;;;;1999.90;999.90;;;4.10;99.90;;;;;;5001766;28;20165;-84
2021/01/03 06:46:51;;;;;;;1999.90;999.90;;;4.00;99.90;;;;;;5019685;28;20154;-84
2021/01/03 06:49:47;;;;;;;1999.90;999.90;;;4.10;99.90;;;;;;5001596;28;20170;-84
2021/01/03 06:53:29;;;;;;;1999.90;999.90;;;4.10;99.90;;;;;;5002098;28;20162;-85
2021/01/03 06:56:14;;;;;;;1999.90;999.90;;;4.10;99.90;;;;;;4920648;29;20593;-84
2021/01/03 06:59:16;;;;;;;1999.90;999.90;;;4.10;99.90;;;;;;4920465;29;20180;-84
2021/01/03 07:01:42;;;;;;;1999.90;999.90;;;4.10;99.90;;;;;;4992324;28;20181;-84
2021/01/03 07:04:13;;;;;;;1999.90;999.90;;;4.00;99.90;;;;;;5019013;28;20197;-84
2021/01/03 07:06:40;;;;;;;1999.90;999.90;;;4.00;99.90;;;;;;5001916;28;20896;-84
2021/01/03 07:09:11;;;;;;;1999.90;999.90;;;4.00;99.90;;;;;;5001069;28;20162;-84
2021/01/03 07:11:49;;;;;;;1999.90;999.90;;;4.00;99.90;;;;;;5001531;28;20163;-84
2021/01/03 07:14:21;;;;;;;1999.90;999.90;;;4.00;99.90;;;;;;5018496;28;20601;-84
2021/01/03 07:17:05;;;;;;;1999.90;999.90;;;4.00;99.90;;;;;;5019040;28;20184;-84
2021/01/03 07:19:30;;;;;;;1999.90;999.90;;;4.10;99.90;;;;;;5019292;28;20162;-84
2021/01/03 07:22:11;;;;;;;1999.90;999.90;;;4.00;99.90;;;;;;5000972;28;20205;-85
2021/01/03 07:24:46;;;;;;;1999.90;999.90;;;4.00;99.90;;;;;;5001764;28;20207;-84
2021/01/03 07:27:37;;;;;;;1999.90;999.90;;;4.00;99.90;;;;;;5001253;28;20203;-84
2021/01/03 07:30:17;;;;;;;1999.90;999.90;;;4.00;99.90;;;;;;5018983;28;20143;-84
2021/01/03 07:33:00;;;;;;;1999.90;999.90;;;4.00;99.90;;;;;;5018960;28;20156;-84
2021/01/03 07:35:26;;;;;;;1999.90;999.90;;;4.10;99.90;;;;;;5001565;28;20533;-84
2021/01/03 07:38:12;;;;;;;1999.90;999.90;;;4.10;99.90;;;;;;5016717;28;20174;-85
2021/01/03 07:40:51;;;;;;;1999.90;999.90;;;4.00;99.90;;;;;;5018114;28;20184;-85
2021/01/03 07:43:17;;;;;;;1999.90;999.90;;;4.00;99.90;;;;;;5018230;28;20184;-85
2021/01/03 07:45:46;;;;;;;1999.90;999.90;;;4.00;99.90;;;;;;5000270;28;20233;-84
2021/01/03 07:48:44;;;;;;;1999.90;999.90;;;4.00;99.90;;;;;;5017888;28;20166;-84
2021/01/03 07:51:12;;;;;;;1999.90;999.90;;;4.00;99.90;;;;;;4974480;28;20260;-84
2021/01/03 07:53:39;;;;;;;1999.90;999.90;;;4.10;99.90;;;;;;5000410;28;20170;-84
2021/01/03 07:56:19;;;;;;;1999.90;999.90;;;4.10;99.90;;;;;;5000458;28;20170;-84
2021/01/03 07:58:51;;;;;;;1999.90;999.90;;;4.00;99.90;;;;;;5017642;28;20253;-84
2021/01/03 08:01:19;;;;;;;1999.90;999.90;;;4.00;99.90;;;;;;5018664;28;20633;-84
2021/01/03 08:03:45;;;;;;;1999.90;999.90;;;4.00;99.90;;;;;;5018053;28;20276;-85
2021/01/03 08:06:11;;;;;;;1999.90;999.90;;;4.00;99.90;;;;;;5018321;28;20189;-84
2021/01/03 08:08:37;;;;;;;1999.90;999.90;;;4.10;99.90;;;;;;4999875;28;20931;-84
2021/01/03 08:11:39;;;;;;;1999.90;999.90;;;4.10;99.90;;;;;;5017596;28;20165;-84
2021/01/03 08:14:27;;;;;;;1999.90;999.90;;;4.10;99.90;;;;;;5017208;28;20412;-84
2021/01/03 08:17:01;;;;;;;1999.90;999.90;;;4.10;99.90;;;;;;5016384;28;20186;-84
2021/01/03 08:19:29;;;;;;;1999.90;999.90;;;4.10;99.90;;;;;;4999722;28;20203;-84
2021/01/03 08:21:59;;;;;;;1999.90;999.90;;;4.20;99.90;;;;;;4999375;28;20172;-85
2021/01/03 08:24:27;;;;;;;1999.90;999.90;;;4.20;99.90;;;;;;4999614;28;20592;-84
2021/01/03 08:26:57;;;;;;;1999.90;999.90;;;4.10;99.90;;;;;;4999631;28;20166;-85
2021/01/03 08:29:43;;;;;;;1999.90;999.90;;;4.10;99.90;;;;;;4999987;28;20170;-85
2021/01/03 08:32:23;;;;;;;1999.90;999.90;;;4.20;99.90;;;;;;5000843;28;20631;-84
2021/01/03 08:34:48;;;;;;;1999.90;999.90;;;4.20;99.90;;;;;;4999441;28;20170;-84
2021/01/03 08:37:21;;;;;;;1999.90;999.90;;;4.20;99.90;;;;;;5017140;28;20166;-84
2021/01/03 08:39:48;;;;;;;1999.90;999.90;;;4.20;99.90;;;;;;4999938;28;20176;-84
2021/01/03 08:42:39;;;;;;;1999.90;999.90;;;4.20;99.90;;;;;;4999190;28;20180;-84
2021/01/03 08:45:07;;;;;;;1999.90;999.90;;;4.20;99.90;;;;;;5006653;28;20280;-84
2021/01/03 08:47:39;;;;;;;1999.90;999.90;;;4.20;99.90;;;;;;4998429;28;20170;-84
2021/01/03 08:50:16;;;;;;;1999.90;999.90;;;4.20;99.90;;;;;;4998875;28;20580;-83
2021/01/03 08:52:42;;;;;;;1999.90;999.90;;;4.30;99.90;;;;;;4998549;28;20154;-83
2021/01/03 08:55:14;;;;;;;1999.90;999.90;;;4.20;99.90;;;;;;5015853;28;20264;-84
2021/01/03 08:57:41;;;;;;;1999.90;999.90;;;4.30;99.90;;;;;;5016146;28;20389;-84
2021/01/03 09:00:13;;;;;;;1999.90;999.90;;;4.30;99.90;;;;;;4998733;28;20177;-84
2021/01/03 09:02:42;;;;;;;1999.90;999.90;;;4.30;99.90;;;;;;4998393;28;20166;-83
2021/01/03 09:05:10;;;;;;;1999.90;999.90;;;4.30;99.90;;;;;;5015806;28;20190;-84
2021/01/03 09:07:37;;;;;;;1999.90;999.90;;;4.30;99.90;;;;;;5016407;28;20249;-84
2021/01/03 09:10:06;;;;;;;1999.90;999.90;;;4.30;99.90;;;;;;4998573;28;20174;-84
2021/01/03 09:15:01;;;;;;;1999.90;999.90;;;4.30;99.90;;;;;;5081627;23;20321;-84
2021/01/03 09:17:37;;;;;;;1999.90;999.90;;;4.40;99.90;;;;;;5018728;28;20189;-83
2021/01/03 09:20:11;;;;;;;1999.90;999.90;;;4.40;99.90;;;;;;5019636;28;20161;-83
2021/01/03 09:22:44;;;;;;;1999.90;999.90;;;4.40;99.90;;;;;;5019207;28;20162;-83
2021/01/03 09:25:12;;;;;;;1999.90;999.90;;;4.40;99.90;;;;;;5019523;28;20286;-83
2021/01/03 09:27:42;;;;;;;1999.90;999.90;;;4.40;99.90;;;;;;5019429;28;20166;-83
2021/01/03 09:30:30;;;;;;;1999.90;999.90;;;4.40;99.90;;;;;;5019158;28;20193;-83
2021/01/03 09:33:19;;;;;;;1999.90;999.90;;;4.40;99.90;;;;;;4999893;28;20180;-83
2021/01/03 09:36:04;;;;;;;1999.90;999.90;;;4.40;99.90;;;;;;5018730;28;20173;-83
2021/01/03 09:38:35;;;;;;;1999.90;999.90;;;4.40;99.90;;;;;;5019623;28;20166;-83
2021/01/03 09:41:38;;;;;;;1999.90;999.90;;;4.50;99.90;;;;;;5001662;28;20166;-82
2021/01/03 09:44:39;;;;;;;1999.90;999.90;;;4.50;99.90;;;;;;5019281;28;20189;-83
2021/01/03 09:47:11;;;;;;;1999.90;999.90;;;4.50;99.90;;;;;;5001956;28;20573;-83
2021/01/03 09:49:37;;;;;;;1999.90;999.90;;;4.60;99.90;;;;;;5020107;28;20166;-83
2021/01/03 09:52:21;;;;;;;1999.90;999.90;;;4.70;99.90;;;;;;5019580;28;20162;-84
2021/01/03 09:55:19;;;;;;;1999.90;999.90;;;4.70;99.90;;;;;;5019291;28;20237;-83
2021/01/03 09:58:06;;;;;;;1999.90;999.90;;;4.60;99.90;;;;;;5019159;28;20209;-83
2021/01/03 10:00:58;;;;;;;1999.90;999.90;;;4.60;99.90;;;;;;5018284;28;20333;-83
2021/01/03 10:03:35;;;;;;;1999.90;999.90;;;4.60;99.90;;;;;;5001201;28;20170;-83
2021/01/03 10:06:24;;;;;;;1999.90;999.90;;;4.50;99.90;;;;;;5019025;28;20157;-83
2021/01/03 10:09:29;;;;;;;1999.90;999.90;;;4.50;99.90;;;;;;5001880;28;20247;-83
2021/01/03 10:11:55;;;;;;;1999.90;999.90;;;4.50;99.90;;;;;;5002857;28;20185;-83
2021/01/03 10:14:28;;;;;;;1999.90;999.90;;;4.50;99.90;;;;;;5019153;28;20228;-84
2021/01/03 10:16:54;;;;;;;1999.90;999.90;;;4.50;99.90;;;;;;5019392;28;20405;-84
2021/01/03 10:19:23;;;;;;;1999.90;999.90;;;4.50;99.90;;;;;;5001506;28;20224;-84
2021/01/03 10:21:57;;;;;;;1999.90;999.90;;;4.50;99.90;;;;;;5019095;28;20437;-84
2021/01/03 10:24:25;;;;;;;1999.90;999.90;;;4.50;99.90;;;;;;5019840;28;20220;-84
2021/01/03 10:27:03;;;;;;;1999.90;999.90;;;4.60;99.90;;;;;;5020498;28;20238;-84
2021/01/03 10:29:32;;;;;;;1999.90;999.90;;;4.60;99.90;;;;;;5020809;28;20197;-84
2021/01/03 10:31:58;;;;;;;1999.90;999.90;;;4.60;99.90;;;;;;5019138;28;20249;-84
2021/01/03 10:34:25;;;;;;;1999.90;999.90;;;4.60;99.90;;;;;;5019531;28;20185;-84
2021/01/03 10:36:57;;;;;;;1999.90;999.90;;;4.70;99.90;;;;;;5018398;28;20166;-85
2021/01/03 10:39:25;;;;;;;1999.90;999.90;;;4.70;99.90;;;;;;5002397;28;20173;-82
2021/01/03 10:41:52;;;;;;;1999.90;999.90;;;4.70;99.90;;;;;;5019292;28;20170;-84
2021/01/03 10:44:18;;;;;;;1999.90;999.90;;;4.70;99.90;;;;;;5000681;28;20280;-84
2021/01/03 10:46:47;;;;;;;1999.90;999.90;;;4.70;99.90;;;;;;5001576;28;20633;-82
2021/01/03 10:49:13;;;;;;;1999.90;999.90;;;4.70;99.90;;;;;;5018974;28;20194;-83
2021/01/03 10:51:42;;;;;;;1999.90;999.90;;;4.70;99.90;;;;;;5018675;28;20586;-84
2021/01/03 10:54:11;;;;;;;1999.90;999.90;;;4.70;99.90;;;;;;5000709;28;20176;-84
2021/01/03 10:56:37;;;;;;;1999.90;999.90;;;4.60;99.90;;;;;;5001464;28;20174;-84
2021/01/03 10:59:04;;;;;;;1999.90;999.90;;;4.70;99.90;;;;;;5000803;28;20174;-84
2021/01/03 11:01:30;;;;;;;1999.90;999.90;;;4.70;99.90;;;;;;5000697;28;20178;-84
2021/01/03 11:03:55;;;;;;;1999.90;999.90;;;4.80;99.90;;;;;;5017891;28;20186;-84
2021/01/03 11:06:21;;;;;;;1999.90;999.90;;;4.80;99.90;;;;;;5018862;28;20162;-84
2021/01/03 11:08:47;;;;;;;1999.90;999.90;;;4.80;99.90;;;;;;5018221;28;20162;-84
2021/01/03 11:11:19;;;;;;;1999.90;999.90;;;4.70;99.90;;;;;;5001728;28;20193;-84
2021/01/03 11:13:45;;;;;;;1999.90;999.90;;;4.80;99.90;;;;;;5004629;28;20464;-84
2021/01/03 11:16:10;;;;;;;1999.90;999.90;;;4.80;99.90;;;;;;5004018;28;20176;-84
2021/01/03 11:18:36;;;;;;;1999.90;999.90;;;4.80;99.90;;;;;;5021678;28;20181;-84
2021/01/03 11:21:02;;;;;;;1999.90;999.90;;;4.80;99.90;;;;;;5021809;28;20245;-84
2021/01/03 11:23:27;;;;;;;1999.90;999.90;;;4.80;99.90;;;;;;5022272;28;20216;-84
2021/01/03 11:25:55;;;;;;;1999.90;999.90;;;4.80;99.90;;;;;;5022753;28;20625;-85
2021/01/03 11:28:22;;;;;;;1999.90;999.90;;;4.80;99.90;;;;;;5004089;28;20637;-84
2021/01/03 11:30:49;;;;;;;1999.90;999.90;;;4.70;99.90;;;;;;5021626;28;20172;-84
2021/01/03 11:33:18;;;;;;;1999.90;999.90;;;4.70;99.90;;;;;;5003940;28;20176;-84
2021/01/03 11:35:46;;;;;;;1999.90;999.90;;;4.80;99.90;;;;;;5022461;28;20224;-82
2021/01/03 11:38:12;;;;;;;1999.90;999.90;;;4.70;99.90;;;;;;5004480;28;20246;-82
2021/01/03 11:40:37;;;;;;;1999.90;999.90;;;4.70;99.90;;;;;;5021914;28;20197;-84
2021/01/03 11:43:03;;;;;;;1999.90;999.90;;;4.70;99.90;;;;;;5020853;28;20166;-85
2021/01/03 11:45:29;;;;;;;1999.90;999.90;;;4.70;99.90;;;;;;5021225;28;20190;-84
2021/01/03 11:47:54;;;;;;;1999.90;999.90;;;4.80;99.90;;;;;;5004324;28;20196;-82
2021/01/03 11:50:23;;;;;;;1999.90;999.90;;;4.70;99.90;;;;;;5020867;28;20162;-82
2021/01/03 11:52:50;;;;;;;1999.90;999.90;;;4.80;99.90;;;;;;5004209;28;20170;-82
2021/01/03 11:55:17;;;;;;;1999.90;999.90;;;4.80;99.90;;;;;;5021903;28;20583;-81
2021/01/03 11:57:44;;;;;;;1999.90;999.90;;;4.80;99.90;;;;;;5021443;28;20192;-82
2021/01/03 12:00:11;;;;;;;1999.90;999.90;;;4.80;99.90;;;;;;5003425;28;20233;-82
2021/01/03 12:02:37;;;;;;;1999.90;999.90;;;4.80;99.90;;;;;;5003801;28;20177;-82
2021/01/03 12:05:03;;;;;;;1999.90;999.90;;;4.80;99.90;;;;;;5020993;28;20548;-82
2021/01/03 12:07:29;;;;;;;1999.90;999.90;;;4.90;99.90;;;;;;5021788;28;20161;-82
2021/01/03 12:09:58;;;;;;;1999.90;999.90;;;4.80;99.90;;;;;;5003989;28;20656;-82
2021/01/03 12:12:23;;;;;;;1999.90;999.90;;;4.80;99.90;;;;;;5021411;28;20158;-84
2021/01/03 12:14:50;;;;;;;1999.90;999.90;;;4.80;99.90;;;;;;5021045;28;20564;-84
2021/01/03 12:17:21;;;;;;;1999.90;999.90;;;4.70;99.90;;;;;;5020975;28;20544;-82
2021/01/03 12:19:49;;;;;;;1999.90;999.90;;;4.70;99.90;;;;;;5021325;28;20162;-82
2021/01/03 12:22:15;;;;;;;1999.90;999.90;;;4.70;99.90;;;;;;5020728;28;20170;-82
2021/01/03 12:24:43;;;;;;;1999.90;999.90;;;4.70;99.90;;;;;;5020764;28;20189;-82
2021/01/03 12:27:15;;;;;;;1999.90;999.90;;;4.80;99.90;;;;;;5020657;28;20158;-84
2021/01/03 12:29:41;;;;;;;1999.90;999.90;;;4.80;99.90;;;;;;5021059;28;20505;-84
2021/01/03 12:32:12;;;;;;;1999.90;999.90;;;4.80;99.90;;;;;;5003307;28;20640;-84
2021/01/03 12:34:37;;;;;;;1999.90;999.90;;;4.80;99.90;;;;;;5003133;28;20164;-84